Cordele, Georgia
Current Conditions -  °F | °C
As of 9:15 AM on Sunday 21 Dec 2014 (Local Time) from KCKF Reporting Station
Overcast Overcast  
Wind Chill: 11°   Ceiling: 600
Heat Index: 11°   Visibility: 7mi
Dew Point: 10°   Wind: 5mph
Humidity: 92%   Direction: 70°ENE
Pressure: 30.18"   Gusts: NA
Location:  31.97°N, 83.78°W
Report Text: KCKF 211415Z AUTO 07004KT 7SM OVC006 11/10 A3018 RMK AO2 T01120099
Loading
Personal Weather Stations






























Interactive Weather Map New forecast layout! Learn more

10-Day Weather Forecast

Advertisements
Track Severe Weather on mobile